sensor_id;sensor_type;location;lat;lon;timestamp;temperature;humidity
7290;DHT22;63176;52.678;13.250;2023-07-16T00:02:03;23.50;99.90
7290;DHT22;63176;52.678;13.250;2023-07-16T00:04:29;23.40;99.90
7290;DHT22;63176;52.678;13.250;2023-07-16T00:06:55;23.40;99.90
7290;DHT22;63176;52.678;13.250;2023-07-16T00:09:21;23.30;99.90
7290;DHT22;63176;52.678;13.250;2023-07-16T00:11:46;23.20;99.90
7290;DHT22;63176;52.678;13.250;2023-07-16T00:14:12;23.10;99.90
7290;DHT22;63176;52.678;13.250;2023-07-16T00:16:38;23.00;99.90
7290;DHT22;63176;52.678;13.250;2023-07-16T00:19:03;22.90;99.90
7290;DHT22;63176;52.678;13.250;2023-07-16T00:21:29;22.80;99.90
7290;DHT22;63176;52.678;13.250;2023-07-16T00:23:55;22.70;99.90
7290;DHT22;63176;52.678;13.250;2023-07-16T00:26:21;22.70;99.90
7290;DHT22;63176;52.678;13.250;2023-07-16T00:28:47;22.70;99.90
7290;DHT22;63176;52.678;13.250;2023-07-16T00:31:13;22.70;99.90
7290;DHT22;63176;52.678;13.250;2023-07-16T00:33:38;22.70;99.90
7290;DHT22;63176;52.678;13.250;2023-07-16T00:36:04;22.60;99.90
7290;DHT22;63176;52.678;13.250;2023-07-16T00:38:30;22.60;99.90
7290;DHT22;63176;52.678;13.250;2023-07-16T00:40:56;22.60;99.90
7290;DHT22;63176;52.678;13.250;2023-07-16T00:43:22;22.60;99.90
7290;DHT22;63176;52.678;13.250;2023-07-16T00:45:48;22.70;99.90
7290;DHT22;63176;52.678;13.250;2023-07-16T00:48:14;22.60;99.90
7290;DHT22;63176;52.678;13.250;2023-07-16T00:50:41;22.60;99.90
7290;DHT22;63176;52.678;13.250;2023-07-16T00:53:10;22.50;99.90
7290;DHT22;63176;52.678;13.250;2023-07-16T00:55:36;22.50;99.90
7290;DHT22;63176;52.678;13.250;2023-07-16T00:58:04;22.50;99.90
7290;DHT22;63176;52.678;13.250;2023-07-16T01:00:34;22.50;99.90
7290;DHT22;63176;52.678;13.250;2023-07-16T01:03:05;22.50;99.90
7290;DHT22;63176;52.678;13.250;2023-07-16T01:05:36;22.50;99.90
7290;DHT22;63176;52.678;13.250;2023-07-16T01:08:07;22.50;99.90
7290;DHT22;63176;52.678;13.250;2023-07-16T01:10:34;22.60;99.90
7290;DHT22;63176;52.678;13.250;2023-07-16T01:13:00;22.60;99.90
7290;DHT22;63176;52.678;13.250;2023-07-16T01:15:26;22.70;99.90
7290;DHT22;63176;52.678;13.250;2023-07-16T01:17:51;22.80;99.90
7290;DHT22;63176;52.678;13.250;2023-07-16T01:20:17;22.90;99.90
7290;DHT22;63176;52.678;13.250;2023-07-16T01:30:29;23.20;99.90
7290;DHT22;63176;52.678;13.250;2023-07-16T01:32:56;23.20;99.90
7290;DHT22;63176;52.678;13.250;2023-07-16T01:35:23;23.10;99.90
7290;DHT22;63176;52.678;13.250;2023-07-16T01:37:48;23.00;99.90
7290;DHT22;63176;52.678;13.250;2023-07-16T01:40:14;22.90;99.90
7290;DHT22;63176;52.678;13.250;2023-07-16T01:42:40;22.80;99.90
7290;DHT22;63176;52.678;13.250;2023-07-16T01:45:06;22.60;99.90
7290;DHT22;63176;52.678;13.250;2023-07-16T01:50:44;22.50;99.90
7290;DHT22;63176;52.678;13.250;2023-07-16T01:53:10;22.40;99.90
7290;DHT22;63176;52.678;13.250;2023-07-16T01:55:35;22.40;99.90
7290;DHT22;63176;52.678;13.250;2023-07-16T01:58:01;22.30;99.90
7290;DHT22;63176;52.678;13.250;2023-07-16T02:00:26;22.30;99.90
7290;DHT22;63176;52.678;13.250;2023-07-16T02:02:52;22.30;99.90
7290;DHT22;63176;52.678;13.250;2023-07-16T02:05:18;22.30;99.90
7290;DHT22;63176;52.678;13.250;2023-07-16T02:07:43;22.30;99.90
7290;DHT22;63176;52.678;13.250;2023-07-16T02:10:09;22.20;99.90
7290;DHT22;63176;52.678;13.250;2023-07-16T02:12:34;22.20;99.90
7290;DHT22;63176;52.678;13.250;2023-07-16T02:15:00;22.20;99.90
7290;DHT22;63176;52.678;13.250;2023-07-16T02:17:26;22.20;99.90
7290;DHT22;63176;52.678;13.250;2023-07-16T02:19:51;22.20;99.90
7290;DHT22;63176;52.678;13.250;2023-07-16T02:22:17;22.20;99.90
7290;DHT22;63176;52.678;13.250;2023-07-16T02:24:42;22.20;99.90
7290;DHT22;63176;52.678;13.250;2023-07-16T02:27:08;22.10;99.90
7290;DHT22;63176;52.678;13.250;2023-07-16T02:29:34;22.10;99.90
7290;DHT22;63176;52.678;13.250;2023-07-16T02:31:59;22.10;99.90
7290;DHT22;63176;52.678;13.250;2023-07-16T02:34:25;22.10;99.90
7290;DHT22;63176;52.678;13.250;2023-07-16T02:36:50;22.10;99.90
7290;DHT22;63176;52.678;13.250;2023-07-16T02:39:16;22.10;99.90
7290;DHT22;63176;52.678;13.250;2023-07-16T02:41:42;22.10;99.90
7290;DHT22;63176;52.678;13.250;2023-07-16T02:44:08;22.00;99.90
7290;DHT22;63176;52.678;13.250;2023-07-16T02:46:34;22.00;99.90
7290;DHT22;63176;52.678;13.250;2023-07-16T02:49:00;22.00;99.90
7290;DHT22;63176;52.678;13.250;2023-07-16T02:51:26;22.00;99.90
7290;DHT22;63176;52.678;13.250;2023-07-16T02:53:51;21.90;99.90
7290;DHT22;63176;52.678;13.250;2023-07-16T02:56:17;21.90;99.90
7290;DHT22;63176;52.678;13.250;2023-07-16T02:58:43;21.90;99.90
7290;DHT22;63176;52.678;13.250;2023-07-16T03:01:08;22.00;99.90
7290;DHT22;63176;52.678;13.250;2023-07-16T03:03:34;21.90;99.90
7290;DHT22;63176;52.678;13.250;2023-07-16T03:06:00;21.90;99.90
7290;DHT22;63176;52.678;13.250;2023-07-16T03:08:26;21.90;99.90
7290;DHT22;63176;52.678;13.250;2023-07-16T03:10:55;21.90;99.90
7290;DHT22;63176;52.678;13.250;2023-07-16T03:13:21;21.90;99.90
7290;DHT22;63176;52.678;13.250;2023-07-16T03:15:47;21.80;99.90
7290;DHT22;63176;52.678;13.250;2023-07-16T03:18:13;21.80;99.90
7290;DHT22;63176;52.678;13.250;2023-07-16T03:20:38;21.70;99.90
7290;DHT22;63176;52.678;13.250;2023-07-16T03:23:04;21.80;99.90
7290;DHT22;63176;52.678;13.250;2023-07-16T03:25:30;21.80;99.90
7290;DHT22;63176;52.678;13.250;2023-07-16T03:27:55;21.80;99.90
7290;DHT22;63176;52.678;13.250;2023-07-16T03:30:21;21.80;99.90
7290;DHT22;63176;52.678;13.250;2023-07-16T03:32:46;21.80;99.90
7290;DHT22;63176;52.678;13.250;2023-07-16T03:35:12;21.70;99.90
7290;DHT22;63176;52.678;13.250;2023-07-16T03:37:37;21.70;99.90
7290;DHT22;63176;52.678;13.250;2023-07-16T03:40:14;21.60;99.90
7290;DHT22;63176;52.678;13.250;2023-07-16T03:42:40;21.70;99.90
7290;DHT22;63176;52.678;13.250;2023-07-16T03:45:07;21.60;99.90
7290;DHT22;63176;52.678;13.250;2023-07-16T03:47:32;21.60;99.90
7290;DHT22;63176;52.678;13.250;2023-07-16T03:49:58;21.60;99.90
7290;DHT22;63176;52.678;13.250;2023-07-16T03:52:24;21.60;99.90
7290;DHT22;63176;52.678;13.250;2023-07-16T03:54:50;21.60;99.90
7290;DHT22;63176;52.678;13.250;2023-07-16T03:57:16;21.60;99.90
7290;DHT22;63176;52.678;13.250;2023-07-16T03:59:42;21.60;99.90
7290;DHT22;63176;52.678;13.250;2023-07-16T04:02:08;21.60;99.90
7290;DHT22;63176;52.678;13.250;2023-07-16T04:04:34;21.60;99.90
7290;DHT22;63176;52.678;13.250;2023-07-16T04:06:59;21.60;99.90
7290;DHT22;63176;52.678;13.250;2023-07-16T04:09:25;21.60;99.90
7290;DHT22;63176;52.678;13.250;2023-07-16T04:11:52;21.60;99.90
7290;DHT22;63176;52.678;13.250;2023-07-16T04:14:17;21.70;99.90
7290;DHT22;63176;52.678;13.250;2023-07-16T04:16:43;21.70;99.90
7290;DHT22;63176;52.678;13.250;2023-07-16T04:19:09;21.70;99.90
7290;DHT22;63176;52.678;13.250;2023-07-16T04:21:36;21.70;99.90
7290;DHT22;63176;52.678;13.250;2023-07-16T04:24:06;21.70;99.90
7290;DHT22;63176;52.678;13.250;2023-07-16T04:26:32;21.60;99.90
7290;DHT22;63176;52.678;13.250;2023-07-16T04:28:58;21.70;99.90
7290;DHT22;63176;52.678;13.250;2023-07-16T04:31:52;21.70;99.90
7290;DHT22;63176;52.678;13.250;2023-07-16T04:34:44;21.70;99.90
7290;DHT22;63176;52.678;13.250;2023-07-16T04:40:36;21.70;99.90
7290;DHT22;63176;52.678;13.250;2023-07-16T04:46:33;21.70;99.90
7290;DHT22;63176;52.678;13.250;2023-07-16T04:49:39;21.60;99.90
7290;DHT22;63176;52.678;13.250;2023-07-16T04:52:15;21.60;99.90
7290;DHT22;63176;52.678;13.250;2023-07-16T04:54:47;21.50;99.90
7290;DHT22;63176;52.678;13.250;2023-07-16T04:57:13;21.50;99.90
7290;DHT22;63176;52.678;13.250;2023-07-16T04:59:41;21.50;99.90
7290;DHT22;63176;52.678;13.250;2023-07-16T05:02:06;21.50;99.90
7290;DHT22;63176;52.678;13.250;2023-07-16T05:04:35;21.50;99.90
7290;DHT22;63176;52.678;13.250;2023-07-16T05:07:10;21.60;99.90
7290;DHT22;63176;52.678;13.250;2023-07-16T05:09:37;21.60;99.90
7290;DHT22;63176;52.678;13.250;2023-07-16T05:12:03;21.60;99.90
7290;DHT22;63176;52.678;13.250;2023-07-16T05:14:29;21.60;99.90
7290;DHT22;63176;52.678;13.250;2023-07-16T05:16:55;21.60;99.90
7290;DHT22;63176;52.678;13.250;2023-07-16T05:19:21;21.60;99.90
7290;DHT22;63176;52.678;13.250;2023-07-16T05:22:02;21.70;99.90
7290;DHT22;63176;52.678;13.250;2023-07-16T05:24:47;21.70;99.90
7290;DHT22;63176;52.678;13.250;2023-07-16T05:27:13;21.70;99.90
7290;DHT22;63176;52.678;13.250;2023-07-16T05:30:04;21.80;99.90
7290;DHT22;63176;52.678;13.250;2023-07-16T05:32:30;21.70;99.90
7290;DHT22;63176;52.678;13.250;2023-07-16T05:34:56;21.80;99.90
7290;DHT22;63176;52.678;13.250;2023-07-16T05:37:22;21.80;99.90
7290;DHT22;63176;52.678;13.250;2023-07-16T05:39:48;21.80;99.90
7290;DHT22;63176;52.678;13.250;2023-07-16T05:42:13;21.80;99.90
7290;DHT22;63176;52.678;13.250;2023-07-16T05:44:42;21.70;99.90
7290;DHT22;63176;52.678;13.250;2023-07-16T05:47:11;21.70;99.90
7290;DHT22;63176;52.678;13.250;2023-07-16T05:49:37;21.80;99.90
7290;DHT22;63176;52.678;13.250;2023-07-16T05:52:03;21.90;99.90
7290;DHT22;63176;52.678;13.250;2023-07-16T05:54:31;21.90;99.90
7290;DHT22;63176;52.678;13.250;2023-07-16T05:57:19;22.00;99.90
7290;DHT22;63176;52.678;13.250;2023-07-16T05:59:45;22.20;99.90
7290;DHT22;63176;52.678;13.250;2023-07-16T06:02:10;22.20;99.90
7290;DHT22;63176;52.678;13.250;2023-07-16T06:04:36;22.20;99.90
7290;DHT22;63176;52.678;13.250;2023-07-16T06:07:02;22.30;99.90
7290;DHT22;63176;52.678;13.250;2023-07-16T06:09:29;22.40;99.90
7290;DHT22;63176;52.678;13.250;2023-07-16T06:11:54;22.50;99.90
7290;DHT22;63176;52.678;13.250;2023-07-16T06:14:20;22.50;99.90
7290;DHT22;63176;52.678;13.250;2023-07-16T06:16:46;22.60;99.90
7290;DHT22;63176;52.678;13.250;2023-07-16T06:19:11;22.60;99.90
7290;DHT22;63176;52.678;13.250;2023-07-16T06:21:37;22.70;99.90
7290;DHT22;63176;52.678;13.250;2023-07-16T06:24:03;22.80;99.90
7290;DHT22;63176;52.678;13.250;2023-07-16T06:26:28;22.90;99.90
7290;DHT22;63176;52.678;13.250;2023-07-16T06:28:54;22.90;99.90
7290;DHT22;63176;52.678;13.250;2023-07-16T06:31:20;23.00;99.90
7290;DHT22;63176;52.678;13.250;2023-07-16T06:33:45;23.00;99.90
7290;DHT22;63176;52.678;13.250;2023-07-16T06:36:13;23.00;99.90
7290;DHT22;63176;52.678;13.250;2023-07-16T06:38:38;23.10;99.90
7290;DHT22;63176;52.678;13.250;2023-07-16T06:41:04;23.10;99.90
7290;DHT22;63176;52.678;13.250;2023-07-16T06:43:30;23.10;99.90
7290;DHT22;63176;52.678;13.250;2023-07-16T06:45:56;23.20;99.90
7290;DHT22;63176;52.678;13.250;2023-07-16T06:48:22;23.30;99.90
7290;DHT22;63176;52.678;13.250;2023-07-16T06:50:47;23.30;99.90
7290;DHT22;63176;52.678;13.250;2023-07-16T06:53:13;23.30;99.90
7290;DHT22;63176;52.678;13.250;2023-07-16T06:55:39;23.30;99.90
7290;DHT22;63176;52.678;13.250;2023-07-16T06:58:05;23.30;99.90
7290;DHT22;63176;52.678;13.250;2023-07-16T07:00:30;23.40;99.90
7290;DHT22;63176;52.678;13.250;2023-07-16T07:02:56;23.50;99.90
7290;DHT22;63176;52.678;13.250;2023-07-16T07:05:22;23.50;99.90
7290;DHT22;63176;52.678;13.250;2023-07-16T07:07:48;23.60;99.90
7290;DHT22;63176;52.678;13.250;2023-07-16T07:10:13;23.70;99.90
7290;DHT22;63176;52.678;13.250;2023-07-16T07:12:39;23.70;99.90
7290;DHT22;63176;52.678;13.250;2023-07-16T07:15:06;23.80;99.90
7290;DHT22;63176;52.678;13.250;2023-07-16T07:17:32;23.80;99.90
7290;DHT22;63176;52.678;13.250;2023-07-16T07:19:58;23.70;99.90
7290;DHT22;63176;52.678;13.250;2023-07-16T07:22:23;23.70;99.90
7290;DHT22;63176;52.678;13.250;2023-07-16T07:24:49;23.70;99.90
7290;DHT22;63176;52.678;13.250;2023-07-16T07:27:16;23.70;99.90
7290;DHT22;63176;52.678;13.250;2023-07-16T07:29:41;23.80;99.90
7290;DHT22;63176;52.678;13.250;2023-07-16T07:32:07;23.80;99.90
7290;DHT22;63176;52.678;13.250;2023-07-16T07:34:33;23.80;99.90
7290;DHT22;63176;52.678;13.250;2023-07-16T07:36:59;23.80;99.90
7290;DHT22;63176;52.678;13.250;2023-07-16T07:39:24;23.80;99.90
7290;DHT22;63176;52.678;13.250;2023-07-16T07:41:50;23.80;99.90
7290;DHT22;63176;52.678;13.250;2023-07-16T07:44:15;23.80;99.90
7290;DHT22;63176;52.678;13.250;2023-07-16T07:46:41;23.90;99.90
7290;DHT22;63176;52.678;13.250;2023-07-16T07:49:07;23.90;99.90
7290;DHT22;63176;52.678;13.250;2023-07-16T07:51:33;24.00;99.90
7290;DHT22;63176;52.678;13.250;2023-07-16T07:53:59;24.20;99.90
7290;DHT22;63176;52.678;13.250;2023-07-16T07:56:25;24.10;99.90
7290;DHT22;63176;52.678;13.250;2023-07-16T07:58:50;24.20;99.90
7290;DHT22;63176;52.678;13.250;2023-07-16T08:01:16;24.30;99.90
7290;DHT22;63176;52.678;13.250;2023-07-16T08:03:42;24.40;99.90
7290;DHT22;63176;52.678;13.250;2023-07-16T08:06:07;24.50;99.90
7290;DHT22;63176;52.678;13.250;2023-07-16T08:08:33;24.60;99.90
7290;DHT22;63176;52.678;13.250;2023-07-16T08:10:59;24.70;99.90
7290;DHT22;63176;52.678;13.250;2023-07-16T08:13:24;24.70;99.90
7290;DHT22;63176;52.678;13.250;2023-07-16T08:15:50;24.90;99.90
7290;DHT22;63176;52.678;13.250;2023-07-16T08:18:16;24.90;99.90
7290;DHT22;63176;52.678;13.250;2023-07-16T08:20:41;25.00;99.90
7290;DHT22;63176;52.678;13.250;2023-07-16T08:23:07;25.10;99.90
7290;DHT22;63176;52.678;13.250;2023-07-16T08:25:34;25.00;99.90
7290;DHT22;63176;52.678;13.250;2023-07-16T08:28:02;25.00;99.90
7290;DHT22;63176;52.678;13.250;2023-07-16T08:30:28;24.90;99.90
7290;DHT22;63176;52.678;13.250;2023-07-16T08:32:53;24.80;99.90
7290;DHT22;63176;52.678;13.250;2023-07-16T08:35:19;24.90;99.90
7290;DHT22;63176;52.678;13.250;2023-07-16T08:37:45;25.00;99.90
7290;DHT22;63176;52.678;13.250;2023-07-16T08:40:14;25.10;99.90
7290;DHT22;63176;52.678;13.250;2023-07-16T08:42:40;25.10;99.90
7290;DHT22;63176;52.678;13.250;2023-07-16T08:45:10;25.20;99.90
7290;DHT22;63176;52.678;13.250;2023-07-16T08:47:37;25.10;99.90
7290;DHT22;63176;52.678;13.250;2023-07-16T08:50:03;25.10;99.90
7290;DHT22;63176;52.678;13.250;2023-07-16T08:52:29;25.10;99.90
7290;DHT22;63176;52.678;13.250;2023-07-16T08:54:55;25.20;99.90
7290;DHT22;63176;52.678;13.250;2023-07-16T08:57:21;25.30;99.90
7290;DHT22;63176;52.678;13.250;2023-07-16T08:59:51;25.30;99.90
7290;DHT22;63176;52.678;13.250;2023-07-16T09:02:20;25.40;99.90
7290;DHT22;63176;52.678;13.250;2023-07-16T09:04:47;25.50;99.90
7290;DHT22;63176;52.678;13.250;2023-07-16T09:07:14;25.50;99.90
7290;DHT22;63176;52.678;13.250;2023-07-16T09:09:40;25.40;99.90
7290;DHT22;63176;52.678;13.250;2023-07-16T09:12:06;25.40;99.90
7290;DHT22;63176;52.678;13.250;2023-07-16T09:14:32;25.30;99.90
7290;DHT22;63176;52.678;13.250;2023-07-16T09:16:58;25.30;99.90
7290;DHT22;63176;52.678;13.250;2023-07-16T09:19:25;25.40;99.90
7290;DHT22;63176;52.678;13.250;2023-07-16T09:21:52;25.50;99.90
7290;DHT22;63176;52.678;13.250;2023-07-16T09:24:19;25.70;99.90
7290;DHT22;63176;52.678;13.250;2023-07-16T09:26:54;25.70;99.90
7290;DHT22;63176;52.678;13.250;2023-07-16T09:29:25;25.80;99.90
7290;DHT22;63176;52.678;13.250;2023-07-16T09:32:02;25.90;99.90
7290;DHT22;63176;52.678;13.250;2023-07-16T09:34:29;25.90;99.90
7290;DHT22;63176;52.678;13.250;2023-07-16T09:36:58;25.80;99.90
7290;DHT22;63176;52.678;13.250;2023-07-16T09:39:25;25.80;99.90
7290;DHT22;63176;52.678;13.250;2023-07-16T09:41:52;25.80;99.90
7290;DHT22;63176;52.678;13.250;2023-07-16T09:44:18;25.90;99.90
7290;DHT22;63176;52.678;13.250;2023-07-16T09:46:45;26.00;99.90
7290;DHT22;63176;52.678;13.250;2023-07-16T09:49:11;26.10;99.90
7290;DHT22;63176;52.678;13.250;2023-07-16T09:51:38;26.30;99.90
7290;DHT22;63176;52.678;13.250;2023-07-16T09:54:04;26.40;99.90
7290;DHT22;63176;52.678;13.250;2023-07-16T09:56:44;26.50;99.90
7290;DHT22;63176;52.678;13.250;2023-07-16T09:59:20;26.50;99.90
7290;DHT22;63176;52.678;13.250;2023-07-16T10:01:46;26.40;99.90
7290;DHT22;63176;52.678;13.250;2023-07-16T10:04:15;26.50;99.90
7290;DHT22;63176;52.678;13.250;2023-07-16T10:07:00;26.60;99.90
7290;DHT22;63176;52.678;13.250;2023-07-16T10:12:11;26.90;99.90
7290;DHT22;63176;52.678;13.250;2023-07-16T10:14:45;26.90;99.90
7290;DHT22;63176;52.678;13.250;2023-07-16T10:17:22;27.00;99.90
7290;DHT22;63176;52.678;13.250;2023-07-16T10:22:18;27.30;99.90
7290;DHT22;63176;52.678;13.250;2023-07-16T10:24:51;27.30;99.90
7290;DHT22;63176;52.678;13.250;2023-07-16T10:27:30;27.30;99.90
7290;DHT22;63176;52.678;13.250;2023-07-16T10:29:56;27.40;99.90
7290;DHT22;63176;52.678;13.250;2023-07-16T10:32:22;27.30;99.90
7290;DHT22;63176;52.678;13.250;2023-07-16T10:34:51;27.50;99.90
7290;DHT22;63176;52.678;13.250;2023-07-16T10:37:17;27.60;99.90
7290;DHT22;63176;52.678;13.250;2023-07-16T10:39:53;27.80;99.90
7290;DHT22;63176;52.678;13.250;2023-07-16T10:42:23;27.90;99.90
7290;DHT22;63176;52.678;13.250;2023-07-16T10:44:50;28.20;99.90
7290;DHT22;63176;52.678;13.250;2023-07-16T10:47:23;28.20;99.90
7290;DHT22;63176;52.678;13.250;2023-07-16T10:49:50;28.30;99.90
7290;DHT22;63176;52.678;13.250;2023-07-16T10:52:17;28.40;99.90
7290;DHT22;63176;52.678;13.250;2023-07-16T10:54:43;28.50;99.90
7290;DHT22;63176;52.678;13.250;2023-07-16T10:57:11;28.40;99.90
7290;DHT22;63176;52.678;13.250;2023-07-16T10:59:40;28.20;99.90
7290;DHT22;63176;52.678;13.250;2023-07-16T11:02:11;28.00;99.90
7290;DHT22;63176;52.678;13.250;2023-07-16T11:04:37;27.80;99.90
7290;DHT22;63176;52.678;13.250;2023-07-16T11:07:11;27.80;99.90
7290;DHT22;63176;52.678;13.250;2023-07-16T11:09:55;28.00;99.90
7290;DHT22;63176;52.678;13.250;2023-07-16T11:12:22;28.00;99.90
7290;DHT22;63176;52.678;13.250;2023-07-16T11:14:50;27.90;99.90
7290;DHT22;63176;52.678;13.250;2023-07-16T11:17:16;27.90;99.90
7290;DHT22;63176;52.678;13.250;2023-07-16T11:19:45;27.80;99.90
7290;DHT22;63176;52.678;13.250;2023-07-16T11:22:12;27.60;99.90
7290;DHT22;63176;52.678;13.250;2023-07-16T11:24:46;27.60;99.90
7290;DHT22;63176;52.678;13.250;2023-07-16T11:27:19;27.60;99.90
7290;DHT22;63176;52.678;13.250;2023-07-16T11:29:56;27.50;99.90
7290;DHT22;63176;52.678;13.250;2023-07-16T11:32:41;27.40;99.90
7290;DHT22;63176;52.678;13.250;2023-07-16T11:35:08;27.60;99.90
7290;DHT22;63176;52.678;13.250;2023-07-16T11:37:36;27.80;99.90
7290;DHT22;63176;52.678;13.250;2023-07-16T11:40:07;28.10;99.90
7290;DHT22;63176;52.678;13.250;2023-07-16T11:42:35;28.20;99.90
7290;DHT22;63176;52.678;13.250;2023-07-16T11:45:02;28.40;99.90
7290;DHT22;63176;52.678;13.250;2023-07-16T11:47:28;28.40;99.90
7290;DHT22;63176;52.678;13.250;2023-07-16T11:49:54;28.60;99.90
7290;DHT22;63176;52.678;13.250;2023-07-16T11:52:22;28.60;99.90
7290;DHT22;63176;52.678;13.250;2023-07-16T11:54:48;28.50;99.90
7290;DHT22;63176;52.678;13.250;2023-07-16T11:57:14;28.30;99.90
7290;DHT22;63176;52.678;13.250;2023-07-16T11:59:40;28.10;99.90
7290;DHT22;63176;52.678;13.250;2023-07-16T12:02:06;28.00;99.90
7290;DHT22;63176;52.678;13.250;2023-07-16T12:04:32;28.00;99.90
7290;DHT22;63176;52.678;13.250;2023-07-16T12:06:57;28.00;99.90
7290;DHT22;63176;52.678;13.250;2023-07-16T12:09:23;28.00;99.90
7290;DHT22;63176;52.678;13.250;2023-07-16T12:11:49;28.20;99.90
7290;DHT22;63176;52.678;13.250;2023-07-16T12:14:15;28.50;99.90
7290;DHT22;63176;52.678;13.250;2023-07-16T12:16:40;28.90;99.90
7290;DHT22;63176;52.678;13.250;2023-07-16T12:19:08;29.10;99.90
7290;DHT22;63176;52.678;13.250;2023-07-16T12:21:34;29.40;99.90
7290;DHT22;63176;52.678;13.250;2023-07-16T12:24:00;29.70;99.90
7290;DHT22;63176;52.678;13.250;2023-07-16T12:26:25;29.90;99.90
7290;DHT22;63176;52.678;13.250;2023-07-16T12:28:51;30.20;99.90
7290;DHT22;63176;52.678;13.250;2023-07-16T12:31:16;30.40;99.90
7290;DHT22;63176;52.678;13.250;2023-07-16T12:33:43;30.60;99.90
7290;DHT22;63176;52.678;13.250;2023-07-16T12:36:09;30.70;99.90
7290;DHT22;63176;52.678;13.250;2023-07-16T12:38:35;30.80;99.90
7290;DHT22;63176;52.678;13.250;2023-07-16T12:41:00;30.80;99.90
7290;DHT22;63176;52.678;13.250;2023-07-16T12:43:26;31.00;99.90
7290;DHT22;63176;52.678;13.250;2023-07-16T12:45:52;31.00;99.90
7290;DHT22;63176;52.678;13.250;2023-07-16T12:48:17;31.00;99.90
7290;DHT22;63176;52.678;13.250;2023-07-16T12:50:43;31.00;99.90
7290;DHT22;63176;52.678;13.250;2023-07-16T12:53:09;31.30;99.90
7290;DHT22;63176;52.678;13.250;2023-07-16T12:55:35;31.50;99.90
7290;DHT22;63176;52.678;13.250;2023-07-16T12:58:00;31.90;99.90
7290;DHT22;63176;52.678;13.250;2023-07-16T13:00:26;32.30;99.90
7290;DHT22;63176;52.678;13.250;2023-07-16T13:02:51;32.70;99.90
7290;DHT22;63176;52.678;13.250;2023-07-16T13:05:17;32.90;99.90
7290;DHT22;63176;52.678;13.250;2023-07-16T13:07:43;33.00;99.90
7290;DHT22;63176;52.678;13.250;2023-07-16T13:10:09;32.80;99.90
7290;DHT22;63176;52.678;13.250;2023-07-16T13:12:35;32.90;99.90
7290;DHT22;63176;52.678;13.250;2023-07-16T13:15:01;33.30;99.90
7290;DHT22;63176;52.678;13.250;2023-07-16T13:17:26;33.70;99.90
7290;DHT22;63176;52.678;13.250;2023-07-16T13:19:52;33.90;99.90
7290;DHT22;63176;52.678;13.250;2023-07-16T13:22:17;34.30;99.90
7290;DHT22;63176;52.678;13.250;2023-07-16T13:24:43;34.50;99.90
7290;DHT22;63176;52.678;13.250;2023-07-16T13:27:29;35.00;99.90
7290;DHT22;63176;52.678;13.250;2023-07-16T13:29:54;35.70;99.90
7290;DHT22;63176;52.678;13.250;2023-07-16T13:32:20;35.90;99.90
7290;DHT22;63176;52.678;13.250;2023-07-16T13:34:46;35.60;99.90
7290;DHT22;63176;52.678;13.250;2023-07-16T13:37:11;35.60;99.90
7290;DHT22;63176;52.678;13.250;2023-07-16T13:39:37;36.20;99.90
7290;DHT22;63176;52.678;13.250;2023-07-16T13:42:03;36.80;99.90
7290;DHT22;63176;52.678;13.250;2023-07-16T13:44:29;37.40;99.90
7290;DHT22;63176;52.678;13.250;2023-07-16T13:46:54;37.60;99.90
7290;DHT22;63176;52.678;13.250;2023-07-16T13:49:20;37.50;99.90
7290;DHT22;63176;52.678;13.250;2023-07-16T13:51:45;37.40;99.90
7290;DHT22;63176;52.678;13.250;2023-07-16T13:54:12;36.70;98.70
7290;DHT22;63176;52.678;13.250;2023-07-16T13:56:37;35.50;94.30
7290;DHT22;63176;52.678;13.250;2023-07-16T13:59:03;35.00;91.70
7290;DHT22;63176;52.678;13.250;2023-07-16T14:01:29;35.50;92.60
7290;DHT22;63176;52.678;13.250;2023-07-16T14:03:55;36.00;94.20
7290;DHT22;63176;52.678;13.250;2023-07-16T14:06:21;36.30;94.00
7290;DHT22;63176;52.678;13.250;2023-07-16T14:08:46;37.00;96.10
7290;DHT22;63176;52.678;13.250;2023-07-16T14:11:12;37.90;97.70
7290;DHT22;63176;52.678;13.250;2023-07-16T14:13:38;38.70;98.30
7290;DHT22;63176;52.678;13.250;2023-07-16T14:16:04;39.00;97.70
7290;DHT22;63176;52.678;13.250;2023-07-16T14:18:30;39.00;97.00
7290;DHT22;63176;52.678;13.250;2023-07-16T14:20:56;39.00;96.10
7290;DHT22;63176;52.678;13.250;2023-07-16T14:23:22;37.90;93.70
7290;DHT22;63176;52.678;13.250;2023-07-16T14:25:47;37.60;91.30
7290;DHT22;63176;52.678;13.250;2023-07-16T14:28:13;37.40;90.50
7290;DHT22;63176;52.678;13.250;2023-07-16T14:30:39;37.80;91.90
7290;DHT22;63176;52.678;13.250;2023-07-16T14:33:04;38.10;91.70
7290;DHT22;63176;52.678;13.250;2023-07-16T14:35:32;38.60;92.40
7290;DHT22;63176;52.678;13.250;2023-07-16T14:37:58;38.70;93.50
7290;DHT22;63176;52.678;13.250;2023-07-16T14:40:24;38.50;99.90
7290;DHT22;63176;52.678;13.250;2023-07-16T14:42:51;38.00;88.60
7290;DHT22;63176;52.678;13.250;2023-07-16T14:45:17;37.90;89.00
7290;DHT22;63176;52.678;13.250;2023-07-16T14:47:43;37.80;84.70
7290;DHT22;63176;52.678;13.250;2023-07-16T14:50:09;37.80;83.90
7290;DHT22;63176;52.678;13.250;2023-07-16T14:52:35;37.70;81.20
7290;DHT22;63176;52.678;13.250;2023-07-16T14:55:02;37.30;80.00
7290;DHT22;63176;52.678;13.250;2023-07-16T14:57:30;37.00;76.80
7290;DHT22;63176;52.678;13.250;2023-07-16T14:59:55;36.50;72.10
7290;DHT22;63176;52.678;13.250;2023-07-16T15:02:21;36.00;75.20
7290;DHT22;63176;52.678;13.250;2023-07-16T15:04:47;35.50;66.50
7290;DHT22;63176;52.678;13.250;2023-07-16T15:07:13;34.90;63.00
7290;DHT22;63176;52.678;13.250;2023-07-16T15:09:39;34.40;58.00
7290;DHT22;63176;52.678;13.250;2023-07-16T15:12:05;34.00;56.70
7290;DHT22;63176;52.678;13.250;2023-07-16T15:14:31;33.60;56.30
7290;DHT22;63176;52.678;13.250;2023-07-16T15:16:58;33.30;54.10
7290;DHT22;63176;52.678;13.250;2023-07-16T15:19:24;32.90;50.70
7290;DHT22;63176;52.678;13.250;2023-07-16T15:21:50;32.50;49.20
7290;DHT22;63176;52.678;13.250;2023-07-16T15:24:15;32.10;48.00
7290;DHT22;63176;52.678;13.250;2023-07-16T15:26:41;32.10;47.90
7290;DHT22;63176;52.678;13.250;2023-07-16T15:29:07;32.10;46.70
7290;DHT22;63176;52.678;13.250;2023-07-16T15:31:33;32.10;48.00
7290;DHT22;63176;52.678;13.250;2023-07-16T15:33:59;32.00;47.50
7290;DHT22;63176;52.678;13.250;2023-07-16T15:36:28;32.00;45.20
7290;DHT22;63176;52.678;13.250;2023-07-16T15:38:54;31.90;44.30
7290;DHT22;63176;52.678;13.250;2023-07-16T15:41:20;31.80;43.20
7290;DHT22;63176;52.678;13.250;2023-07-16T15:43:49;31.60;41.80
7290;DHT22;63176;52.678;13.250;2023-07-16T15:46:18;31.30;40.40
7290;DHT22;63176;52.678;13.250;2023-07-16T15:48:44;31.10;38.00
7290;DHT22;63176;52.678;13.250;2023-07-16T15:51:14;30.80;36.70
7290;DHT22;63176;52.678;13.250;2023-07-16T15:53:42;30.60;34.60